sensor_id;sensor_type;location;lat;lon;timestamp;temperature;humidity
14252;DHT22;7210;51.502;10.722;2023-12-20T00:00:02;4.80;1.00
14252;DHT22;7210;51.502;10.722;2023-12-20T00:02:31;4.80;1.00
14252;DHT22;7210;51.502;10.722;2023-12-20T00:04:59;4.90;1.00
14252;DHT22;7210;51.502;10.722;2023-12-20T00:07:26;4.80;1.00
14252;DHT22;7210;51.502;10.722;2023-12-20T00:09:53;4.80;1.00
14252;DHT22;7210;51.502;10.722;2023-12-20T00:12:20;4.70;1.00
14252;DHT22;7210;51.502;10.722;2023-12-20T00:14:47;4.70;1.00
14252;DHT22;7210;51.502;10.722;2023-12-20T00:17:13;4.80;1.00
14252;DHT22;7210;51.502;10.722;2023-12-20T00:19:42;4.70;1.00
14252;DHT22;7210;51.502;10.722;2023-12-20T00:22:09;4.80;1.00
14252;DHT22;7210;51.502;10.722;2023-12-20T00:24:36;4.80;1.00
14252;DHT22;7210;51.502;10.722;2023-12-20T00:27:05;4.90;1.00
14252;DHT22;7210;51.502;10.722;2023-12-20T00:29:32;4.80;1.00
14252;DHT22;7210;51.502;10.722;2023-12-20T00:31:59;4.90;1.00
14252;DHT22;7210;51.502;10.722;2023-12-20T00:34:25;4.80;1.00
14252;DHT22;7210;51.502;10.722;2023-12-20T00:36:54;4.80;1.00
14252;DHT22;7210;51.502;10.722;2023-12-20T00:39:20;4.80;1.00
14252;DHT22;7210;51.502;10.722;2023-12-20T00:41:47;4.90;1.00
14252;DHT22;7210;51.502;10.722;2023-12-20T00:44:14;4.90;1.00
14252;DHT22;7210;51.502;10.722;2023-12-20T00:46:41;4.80;1.00
14252;DHT22;7210;51.502;10.722;2023-12-20T00:49:08;4.80;1.00
14252;DHT22;7210;51.502;10.722;2023-12-20T00:51:35;4.80;1.00
14252;DHT22;7210;51.502;10.722;2023-12-20T00:54:06;4.70;1.00
14252;DHT22;7210;51.502;10.722;2023-12-20T00:56:33;4.70;1.00
14252;DHT22;7210;51.502;10.722;2023-12-20T00:59:00;4.90;1.00
14252;DHT22;7210;51.502;10.722;2023-12-20T01:01:27;4.80;1.00
14252;DHT22;7210;51.502;10.722;2023-12-20T01:03:54;4.80;1.00
14252;DHT22;7210;51.502;10.722;2023-12-20T01:06:21;4.80;1.00
14252;DHT22;7210;51.502;10.722;2023-12-20T01:08:48;4.80;1.00
14252;DHT22;7210;51.502;10.722;2023-12-20T01:11:16;4.90;1.00
14252;DHT22;7210;51.502;10.722;2023-12-20T01:13:43;4.90;1.00
14252;DHT22;7210;51.502;10.722;2023-12-20T01:16:10;4.80;1.00
14252;DHT22;7210;51.502;10.722;2023-12-20T01:18:41;4.80;1.00
14252;DHT22;7210;51.502;10.722;2023-12-20T01:21:08;4.80;1.00
14252;DHT22;7210;51.502;10.722;2023-12-20T01:23:35;4.80;1.00
14252;DHT22;7210;51.502;10.722;2023-12-20T01:26:02;4.80;1.00
14252;DHT22;7210;51.502;10.722;2023-12-20T01:28:36;4.80;1.00
14252;DHT22;7210;51.502;10.722;2023-12-20T01:31:03;4.90;1.00
14252;DHT22;7210;51.502;10.722;2023-12-20T01:33:30;4.90;1.00
14252;DHT22;7210;51.502;10.722;2023-12-20T01:35:57;4.90;1.00
14252;DHT22;7210;51.502;10.722;2023-12-20T01:38:24;4.90;1.00
14252;DHT22;7210;51.502;10.722;2023-12-20T01:40:53;4.90;1.00
14252;DHT22;7210;51.502;10.722;2023-12-20T01:43:20;4.90;1.00
14252;DHT22;7210;51.502;10.722;2023-12-20T01:45:48;4.90;1.00
14252;DHT22;7210;51.502;10.722;2023-12-20T01:48:17;4.80;1.00
14252;DHT22;7210;51.502;10.722;2023-12-20T01:50:47;5.00;1.00
14252;DHT22;7210;51.502;10.722;2023-12-20T01:53:15;4.90;1.00
14252;DHT22;7210;51.502;10.722;2023-12-20T01:55:44;5.00;1.00
14252;DHT22;7210;51.502;10.722;2023-12-20T01:58:12;5.00;1.00
14252;DHT22;7210;51.502;10.722;2023-12-20T02:00:40;5.00;1.00
14252;DHT22;7210;51.502;10.722;2023-12-20T02:03:08;5.00;1.00
14252;DHT22;7210;51.502;10.722;2023-12-20T02:05:36;5.10;1.00
14252;DHT22;7210;51.502;10.722;2023-12-20T02:08:03;5.10;1.00
14252;DHT22;7210;51.502;10.722;2023-12-20T02:10:31;5.10;1.00
14252;DHT22;7210;51.502;10.722;2023-12-20T02:12:58;5.00;1.00
14252;DHT22;7210;51.502;10.722;2023-12-20T02:15:25;5.00;1.00
14252;DHT22;7210;51.502;10.722;2023-12-20T02:17:52;5.00;1.00
14252;DHT22;7210;51.502;10.722;2023-12-20T02:20:20;5.00;1.00
14252;DHT22;7210;51.502;10.722;2023-12-20T02:22:54;4.90;1.00
14252;DHT22;7210;51.502;10.722;2023-12-20T02:25:21;5.00;1.00
14252;DHT22;7210;51.502;10.722;2023-12-20T02:27:48;5.10;1.00
14252;DHT22;7210;51.502;10.722;2023-12-20T02:30:16;5.20;1.00
14252;DHT22;7210;51.502;10.722;2023-12-20T02:32:48;5.20;1.00
14252;DHT22;7210;51.502;10.722;2023-12-20T02:35:15;5.20;1.00
14252;DHT22;7210;51.502;10.722;2023-12-20T02:37:42;5.20;1.00
14252;DHT22;7210;51.502;10.722;2023-12-20T02:40:10;5.20;1.00
14252;DHT22;7210;51.502;10.722;2023-12-20T02:42:37;5.30;1.00
14252;DHT22;7210;51.502;10.722;2023-12-20T02:45:05;5.20;1.00
14252;DHT22;7210;51.502;10.722;2023-12-20T02:47:32;5.20;1.00
14252;DHT22;7210;51.502;10.722;2023-12-20T02:49:59;5.20;1.00
14252;DHT22;7210;51.502;10.722;2023-12-20T02:52:29;5.20;1.00
14252;DHT22;7210;51.502;10.722;2023-12-20T02:54:59;5.40;1.00
14252;DHT22;7210;51.502;10.722;2023-12-20T02:57:27;5.50;1.00
14252;DHT22;7210;51.502;10.722;2023-12-20T02:59:54;5.50;1.00
14252;DHT22;7210;51.502;10.722;2023-12-20T03:02:21;5.50;1.00
14252;DHT22;7210;51.502;10.722;2023-12-20T03:04:48;5.50;1.00
14252;DHT22;7210;51.502;10.722;2023-12-20T03:07:15;5.60;1.00
14252;DHT22;7210;51.502;10.722;2023-12-20T03:09:47;5.50;21.30
14252;DHT22;7210;51.502;10.722;2023-12-20T03:12:14;5.50;46.60
14252;DHT22;7210;51.502;10.722;2023-12-20T03:14:43;5.40;81.00
14252;DHT22;7210;51.502;10.722;2023-12-20T03:17:10;5.40;98.90
14252;DHT22;7210;51.502;10.722;2023-12-20T03:19:37;5.30;99.90
14252;DHT22;7210;51.502;10.722;2023-12-20T03:22:04;5.30;99.90
14252;DHT22;7210;51.502;10.722;2023-12-20T03:24:31;5.30;99.90
14252;DHT22;7210;51.502;10.722;2023-12-20T03:26:58;5.30;99.90
14252;DHT22;7210;51.502;10.722;2023-12-20T03:29:24;5.30;99.90
14252;DHT22;7210;51.502;10.722;2023-12-20T03:31:53;5.20;87.40
14252;DHT22;7210;51.502;10.722;2023-12-20T03:34:19;5.30;81.90
14252;DHT22;7210;51.502;10.722;2023-12-20T03:36:46;5.30;78.50
14252;DHT22;7210;51.502;10.722;2023-12-20T03:39:13;5.30;69.90
14252;DHT22;7210;51.502;10.722;2023-12-20T03:41:40;5.30;59.00
14252;DHT22;7210;51.502;10.722;2023-12-20T03:44:11;5.20;59.00
14252;DHT22;7210;51.502;10.722;2023-12-20T03:46:38;5.20;55.00
14252;DHT22;7210;51.502;10.722;2023-12-20T03:49:06;5.20;56.00
14252;DHT22;7210;51.502;10.722;2023-12-20T03:51:33;5.20;56.00
14252;DHT22;7210;51.502;10.722;2023-12-20T03:54:00;5.10;63.40
14252;DHT22;7210;51.502;10.722;2023-12-20T03:56:26;5.10;70.60
14252;DHT22;7210;51.502;10.722;2023-12-20T03:58:54;5.00;69.40
14252;DHT22;7210;51.502;10.722;2023-12-20T04:01:21;5.00;73.20
14252;DHT22;7210;51.502;10.722;2023-12-20T04:03:47;5.10;72.20
14252;DHT22;7210;51.502;10.722;2023-12-20T04:06:18;5.00;78.40
14252;DHT22;7210;51.502;10.722;2023-12-20T04:08:45;5.00;89.20
14252;DHT22;7210;51.502;10.722;2023-12-20T04:11:12;5.10;93.90
14252;DHT22;7210;51.502;10.722;2023-12-20T04:13:38;5.00;99.90
14252;DHT22;7210;51.502;10.722;2023-12-20T04:16:06;5.00;95.00
14252;DHT22;7210;51.502;10.722;2023-12-20T04:18:33;5.00;86.70
14252;DHT22;7210;51.502;10.722;2023-12-20T04:21:00;5.10;89.40
14252;DHT22;7210;51.502;10.722;2023-12-20T04:23:28;5.00;93.30
14252;DHT22;7210;51.502;10.722;2023-12-20T04:25:55;5.10;94.90
14252;DHT22;7210;51.502;10.722;2023-12-20T04:28:22;5.20;99.90
14252;DHT22;7210;51.502;10.722;2023-12-20T04:30:53;5.20;99.90
14252;DHT22;7210;51.502;10.722;2023-12-20T04:33:20;5.10;99.90
14252;DHT22;7210;51.502;10.722;2023-12-20T04:35:47;5.10;99.90
14252;DHT22;7210;51.502;10.722;2023-12-20T04:38:17;5.10;99.90
14252;DHT22;7210;51.502;10.722;2023-12-20T04:40:45;5.00;91.80
14252;DHT22;7210;51.502;10.722;2023-12-20T04:43:13;5.00;84.00
14252;DHT22;7210;51.502;10.722;2023-12-20T04:45:40;5.00;79.40
14252;DHT22;7210;51.502;10.722;2023-12-20T04:48:12;5.00;71.50
14252;DHT22;7210;51.502;10.722;2023-12-20T04:50:39;5.10;85.40
14252;DHT22;7210;51.502;10.722;2023-12-20T04:53:06;5.00;99.90
14252;DHT22;7210;51.502;10.722;2023-12-20T04:55:33;5.10;99.90
14252;DHT22;7210;51.502;10.722;2023-12-20T04:58:01;5.10;99.90
14252;DHT22;7210;51.502;10.722;2023-12-20T05:00:28;5.00;99.90
14252;DHT22;7210;51.502;10.722;2023-12-20T05:02:55;4.90;99.90
14252;DHT22;7210;51.502;10.722;2023-12-20T05:05:22;4.80;99.90
14252;DHT22;7210;51.502;10.722;2023-12-20T05:07:53;4.80;99.90
14252;DHT22;7210;51.502;10.722;2023-12-20T05:10:20;4.80;99.90
14252;DHT22;7210;51.502;10.722;2023-12-20T05:12:47;4.80;99.90
14252;DHT22;7210;51.502;10.722;2023-12-20T05:15:18;4.70;99.90
14252;DHT22;7210;51.502;10.722;2023-12-20T05:17:45;4.60;99.90
14252;DHT22;7210;51.502;10.722;2023-12-20T05:20:12;4.60;99.90
14252;DHT22;7210;51.502;10.722;2023-12-20T05:22:40;4.60;99.90
14252;DHT22;7210;51.502;10.722;2023-12-20T05:25:07;4.70;99.90
14252;DHT22;7210;51.502;10.722;2023-12-20T05:27:34;4.80;99.90
14252;DHT22;7210;51.502;10.722;2023-12-20T05:30:01;4.80;99.90
14252;DHT22;7210;51.502;10.722;2023-12-20T05:32:31;4.80;99.90
14252;DHT22;7210;51.502;10.722;2023-12-20T05:34:58;4.80;99.90
14252;DHT22;7210;51.502;10.722;2023-12-20T05:37:25;4.80;99.90
14252;DHT22;7210;51.502;10.722;2023-12-20T05:39:52;4.70;99.90
14252;DHT22;7210;51.502;10.722;2023-12-20T05:42:19;4.80;99.90
14252;DHT22;7210;51.502;10.722;2023-12-20T05:44:47;4.80;99.90
14252;DHT22;7210;51.502;10.722;2023-12-20T05:47:14;4.80;99.90
14252;DHT22;7210;51.502;10.722;2023-12-20T05:49:43;4.70;99.90
14252;DHT22;7210;51.502;10.722;2023-12-20T05:52:10;4.60;99.90
14252;DHT22;7210;51.502;10.722;2023-12-20T05:54:37;4.60;99.90
14252;DHT22;7210;51.502;10.722;2023-12-20T05:57:04;4.50;99.90
14252;DHT22;7210;51.502;10.722;2023-12-20T05:59:33;4.60;99.90
14252;DHT22;7210;51.502;10.722;2023-12-20T06:01:59;4.50;99.90
14252;DHT22;7210;51.502;10.722;2023-12-20T06:04:26;4.60;99.90
14252;DHT22;7210;51.502;10.722;2023-12-20T06:07:06;4.50;99.90
14252;DHT22;7210;51.502;10.722;2023-12-20T06:09:35;4.50;99.90
14252;DHT22;7210;51.502;10.722;2023-12-20T06:12:02;4.40;99.90
14252;DHT22;7210;51.502;10.722;2023-12-20T06:14:29;4.40;99.90
14252;DHT22;7210;51.502;10.722;2023-12-20T06:16:56;4.30;99.90
14252;DHT22;7210;51.502;10.722;2023-12-20T06:19:23;4.20;99.90
14252;DHT22;7210;51.502;10.722;2023-12-20T06:21:50;4.20;99.90
14252;DHT22;7210;51.502;10.722;2023-12-20T06:24:24;4.20;99.90
14252;DHT22;7210;51.502;10.722;2023-12-20T06:26:53;4.20;99.90
14252;DHT22;7210;51.502;10.722;2023-12-20T06:29:21;4.30;99.90
14252;DHT22;7210;51.502;10.722;2023-12-20T06:31:47;4.30;99.90
14252;DHT22;7210;51.502;10.722;2023-12-20T06:34:14;4.40;99.90
14252;DHT22;7210;51.502;10.722;2023-12-20T06:36:41;4.50;99.90
14252;DHT22;7210;51.502;10.722;2023-12-20T06:39:08;4.50;99.90
14252;DHT22;7210;51.502;10.722;2023-12-20T06:41:42;4.50;99.90
14252;DHT22;7210;51.502;10.722;2023-12-20T06:44:11;4.60;99.90
14252;DHT22;7210;51.502;10.722;2023-12-20T06:46:48;4.60;99.90
14252;DHT22;7210;51.502;10.722;2023-12-20T06:49:16;4.60;99.90
14252;DHT22;7210;51.502;10.722;2023-12-20T06:51:44;4.60;99.90
14252;DHT22;7210;51.502;10.722;2023-12-20T06:54:11;4.70;99.90
14252;DHT22;7210;51.502;10.722;2023-12-20T06:56:38;4.70;99.90
14252;DHT22;7210;51.502;10.722;2023-12-20T06:59:06;4.70;99.90
14252;DHT22;7210;51.502;10.722;2023-12-20T07:01:35;4.70;99.90
14252;DHT22;7210;51.502;10.722;2023-12-20T07:04:02;4.70;99.90
14252;DHT22;7210;51.502;10.722;2023-12-20T07:06:29;4.70;99.90
14252;DHT22;7210;51.502;10.722;2023-12-20T07:08:56;4.60;99.90
14252;DHT22;7210;51.502;10.722;2023-12-20T07:11:23;4.60;99.90
14252;DHT22;7210;51.502;10.722;2023-12-20T07:13:50;4.50;99.90
14252;DHT22;7210;51.502;10.722;2023-12-20T07:16:18;4.50;99.90
14252;DHT22;7210;51.502;10.722;2023-12-20T07:18:45;4.50;99.90
14252;DHT22;7210;51.502;10.722;2023-12-20T07:21:12;4.50;99.90
14252;DHT22;7210;51.502;10.722;2023-12-20T07:23:39;4.50;99.90
14252;DHT22;7210;51.502;10.722;2023-12-20T07:26:07;4.40;99.90
14252;DHT22;7210;51.502;10.722;2023-12-20T07:28:35;4.30;99.90
14252;DHT22;7210;51.502;10.722;2023-12-20T07:31:05;4.30;99.90
14252;DHT22;7210;51.502;10.722;2023-12-20T07:33:33;4.30;99.90
14252;DHT22;7210;51.502;10.722;2023-12-20T07:36:00;4.30;99.90
14252;DHT22;7210;51.502;10.722;2023-12-20T07:38:27;4.30;99.90
14252;DHT22;7210;51.502;10.722;2023-12-20T07:40:59;4.20;99.90
14252;DHT22;7210;51.502;10.722;2023-12-20T07:43:26;4.20;99.90
14252;DHT22;7210;51.502;10.722;2023-12-20T07:45:53;4.30;99.90
14252;DHT22;7210;51.502;10.722;2023-12-20T07:48:20;4.30;99.90
14252;DHT22;7210;51.502;10.722;2023-12-20T07:50:48;4.40;99.90
14252;DHT22;7210;51.502;10.722;2023-12-20T07:53:15;4.40;99.90
14252;DHT22;7210;51.502;10.722;2023-12-20T07:55:42;4.50;99.90
14252;DHT22;7210;51.502;10.722;2023-12-20T07:58:09;4.50;99.90
14252;DHT22;7210;51.502;10.722;2023-12-20T08:00:36;4.50;99.90
14252;DHT22;7210;51.502;10.722;2023-12-20T08:03:04;4.40;99.90
14252;DHT22;7210;51.502;10.722;2023-12-20T08:05:31;4.40;99.90
14252;DHT22;7210;51.502;10.722;2023-12-20T08:07:59;4.40;99.90
14252;DHT22;7210;51.502;10.722;2023-12-20T08:10:26;4.40;99.90
14252;DHT22;7210;51.502;10.722;2023-12-20T08:12:59;4.40;99.90
14252;DHT22;7210;51.502;10.722;2023-12-20T08:15:26;4.40;99.90
14252;DHT22;7210;51.502;10.722;2023-12-20T08:17:54;4.40;99.90
14252;DHT22;7210;51.502;10.722;2023-12-20T08:20:24;4.50;99.90
14252;DHT22;7210;51.502;10.722;2023-12-20T08:22:51;4.60;99.90
14252;DHT22;7210;51.502;10.722;2023-12-20T08:25:19;4.60;99.90
14252;DHT22;7210;51.502;10.722;2023-12-20T08:27:46;4.70;99.90
14252;DHT22;7210;51.502;10.722;2023-12-20T08:30:23;4.80;99.90
14252;DHT22;7210;51.502;10.722;2023-12-20T08:32:50;4.90;99.90
14252;DHT22;7210;51.502;10.722;2023-12-20T08:35:17;4.90;99.90
14252;DHT22;7210;51.502;10.722;2023-12-20T08:37:47;4.90;99.90
14252;DHT22;7210;51.502;10.722;2023-12-20T08:40:19;4.80;99.90
14252;DHT22;7210;51.502;10.722;2023-12-20T08:42:47;4.80;99.90
14252;DHT22;7210;51.502;10.722;2023-12-20T08:45:14;4.80;99.90
14252;DHT22;7210;51.502;10.722;2023-12-20T08:47:41;4.80;99.90
14252;DHT22;7210;51.502;10.722;2023-12-20T08:50:11;4.90;99.90
14252;DHT22;7210;51.502;10.722;2023-12-20T08:52:38;4.90;99.90
14252;DHT22;7210;51.502;10.722;2023-12-20T08:55:05;4.90;99.90
14252;DHT22;7210;51.502;10.722;2023-12-20T08:57:37;4.90;99.90
14252;DHT22;7210;51.502;10.722;2023-12-20T09:00:05;4.90;99.90
14252;DHT22;7210;51.502;10.722;2023-12-20T09:02:33;4.80;99.90
14252;DHT22;7210;51.502;10.722;2023-12-20T09:05:01;4.80;99.90
14252;DHT22;7210;51.502;10.722;2023-12-20T09:07:28;4.80;99.90
14252;DHT22;7210;51.502;10.722;2023-12-20T09:09:57;4.80;99.90
14252;DHT22;7210;51.502;10.722;2023-12-20T09:12:24;4.80;99.90
14252;DHT22;7210;51.502;10.722;2023-12-20T09:14:52;4.90;99.90
14252;DHT22;7210;51.502;10.722;2023-12-20T09:17:23;5.00;99.90
14252;DHT22;7210;51.502;10.722;2023-12-20T09:19:53;5.10;99.90
14252;DHT22;7210;51.502;10.722;2023-12-20T09:22:20;5.20;99.90
14252;DHT22;7210;51.502;10.722;2023-12-20T09:24:47;5.30;99.90
14252;DHT22;7210;51.502;10.722;2023-12-20T09:27:17;5.30;99.90
14252;DHT22;7210;51.502;10.722;2023-12-20T09:29:47;5.30;99.90
14252;DHT22;7210;51.502;10.722;2023-12-20T09:32:16;5.30;99.90
14252;DHT22;7210;51.502;10.722;2023-12-20T09:34:43;5.30;99.90
14252;DHT22;7210;51.502;10.722;2023-12-20T09:37:11;5.30;99.90
14252;DHT22;7210;51.502;10.722;2023-12-20T09:39:38;5.40;99.90
14252;DHT22;7210;51.502;10.722;2023-12-20T09:42:06;5.50;99.90
14252;DHT22;7210;51.502;10.722;2023-12-20T09:44:34;5.60;99.90
14252;DHT22;7210;51.502;10.722;2023-12-20T09:47:03;5.60;99.90
14252;DHT22;7210;51.502;10.722;2023-12-20T09:49:32;5.70;99.90
14252;DHT22;7210;51.502;10.722;2023-12-20T09:52:00;5.70;99.90
14252;DHT22;7210;51.502;10.722;2023-12-20T09:54:28;5.70;99.90
14252;DHT22;7210;51.502;10.722;2023-12-20T09:56:56;5.70;99.90
14252;DHT22;7210;51.502;10.722;2023-12-20T09:59:23;5.70;99.90
14252;DHT22;7210;51.502;10.722;2023-12-20T10:01:50;5.70;99.90
14252;DHT22;7210;51.502;10.722;2023-12-20T10:04:18;5.70;99.90
14252;DHT22;7210;51.502;10.722;2023-12-20T10:06:46;5.70;99.90
14252;DHT22;7210;51.502;10.722;2023-12-20T10:09:14;5.70;99.90
14252;DHT22;7210;51.502;10.722;2023-12-20T10:11:41;5.70;99.90
14252;DHT22;7210;51.502;10.722;2023-12-20T10:14:11;5.70;99.90
14252;DHT22;7210;51.502;10.722;2023-12-20T10:16:38;5.70;99.90
14252;DHT22;7210;51.502;10.722;2023-12-20T10:19:05;5.70;99.90
14252;DHT22;7210;51.502;10.722;2023-12-20T10:21:32;5.60;99.90
14252;DHT22;7210;51.502;10.722;2023-12-20T10:24:00;5.60;99.90
14252;DHT22;7210;51.502;10.722;2023-12-20T10:26:27;5.60;99.90
14252;DHT22;7210;51.502;10.722;2023-12-20T10:28:56;5.60;99.90
14252;DHT22;7210;51.502;10.722;2023-12-20T10:31:27;5.70;99.90
14252;DHT22;7210;51.502;10.722;2023-12-20T10:33:55;5.70;99.90
14252;DHT22;7210;51.502;10.722;2023-12-20T10:36:24;5.70;99.90
14252;DHT22;7210;51.502;10.722;2023-12-20T10:38:52;5.70;99.90
14252;DHT22;7210;51.502;10.722;2023-12-20T10:41:25;5.80;99.90
14252;DHT22;7210;51.502;10.722;2023-12-20T10:43:56;5.80;99.90
14252;DHT22;7210;51.502;10.722;2023-12-20T10:46:26;5.80;99.90
14252;DHT22;7210;51.502;10.722;2023-12-20T10:48:54;5.80;99.90
14252;DHT22;7210;51.502;10.722;2023-12-20T10:51:22;5.80;99.90
14252;DHT22;7210;51.502;10.722;2023-12-20T10:53:59;5.90;99.90
14252;DHT22;7210;51.502;10.722;2023-12-20T10:56:32;6.00;99.90
14252;DHT22;7210;51.502;10.722;2023-12-20T10:59:02;6.00;99.90
14252;DHT22;7210;51.502;10.722;2023-12-20T11:01:30;6.10;99.90
14252;DHT22;7210;51.502;10.722;2023-12-20T11:03:59;6.20;99.90
14252;DHT22;7210;51.502;10.722;2023-12-20T11:06:32;6.30;99.90
14252;DHT22;7210;51.502;10.722;2023-12-20T11:09:08;6.40;99.90
14252;DHT22;7210;51.502;10.722;2023-12-20T11:11:51;6.50;99.90
14252;DHT22;7210;51.502;10.722;2023-12-20T11:14:23;6.40;99.90
14252;DHT22;7210;51.502;10.722;2023-12-20T11:17:05;6.50;99.90
14252;DHT22;7210;51.502;10.722;2023-12-20T11:19:32;6.40;99.90
14252;DHT22;7210;51.502;10.722;2023-12-20T11:21:59;6.40;99.90
14252;DHT22;7210;51.502;10.722;2023-12-20T11:24:26;6.40;99.90
14252;DHT22;7210;51.502;10.722;2023-12-20T11:26:56;6.40;99.90
14252;DHT22;7210;51.502;10.722;2023-12-20T11:29:30;6.40;99.90
14252;DHT22;7210;51.502;10.722;2023-12-20T11:31:59;6.40;99.90
14252;DHT22;7210;51.502;10.722;2023-12-20T11:34:27;6.50;99.90
14252;DHT22;7210;51.502;10.722;2023-12-20T11:36:58;6.40;99.90
14252;DHT22;7210;51.502;10.722;2023-12-20T11:39:31;6.50;99.90
14252;DHT22;7210;51.502;10.722;2023-12-20T11:42:06;6.50;99.90
14252;DHT22;7210;51.502;10.722;2023-12-20T11:44:33;6.50;99.90
14252;DHT22;7210;51.502;10.722;2023-12-20T11:47:00;6.50;99.90
14252;DHT22;7210;51.502;10.722;2023-12-20T11:49:27;6.50;99.90
14252;DHT22;7210;51.502;10.722;2023-12-20T11:51:54;6.50;99.90
14252;DHT22;7210;51.502;10.722;2023-12-20T11:54:21;6.40;99.90
14252;DHT22;7210;51.502;10.722;2023-12-20T11:56:48;6.40;99.90
14252;DHT22;7210;51.502;10.722;2023-12-20T11:59:19;6.30;99.90
14252;DHT22;7210;51.502;10.722;2023-12-20T12:01:49;6.30;99.90
14252;DHT22;7210;51.502;10.722;2023-12-20T12:04:17;6.40;99.90
14252;DHT22;7210;51.502;10.722;2023-12-20T12:06:47;6.40;99.90
14252;DHT22;7210;51.502;10.722;2023-12-20T12:09:18;6.40;99.90
14252;DHT22;7210;51.502;10.722;2023-12-20T12:11:45;6.50;99.90
14252;DHT22;7210;51.502;10.722;2023-12-20T12:14:25;6.50;99.90
14252;DHT22;7210;51.502;10.722;2023-12-20T12:16:52;6.70;99.90
14252;DHT22;7210;51.502;10.722;2023-12-20T12:19:20;6.80;99.90
14252;DHT22;7210;51.502;10.722;2023-12-20T12:22:04;6.80;99.90
14252;DHT22;7210;51.502;10.722;2023-12-20T12:24:32;6.70;99.90
14252;DHT22;7210;51.502;10.722;2023-12-20T12:26:59;6.60;99.90
14252;DHT22;7210;51.502;10.722;2023-12-20T12:29:31;6.60;99.90
14252;DHT22;7210;51.502;10.722;2023-12-20T12:31:57;6.60;99.90
14252;DHT22;7210;51.502;10.722;2023-12-20T12:34:26;6.60;99.90
14252;DHT22;7210;51.502;10.722;2023-12-20T12:36:53;6.60;99.90
14252;DHT22;7210;51.502;10.722;2023-12-20T12:39:20;6.60;99.90
14252;DHT22;7210;51.502;10.722;2023-12-20T12:41:47;6.80;99.90
14252;DHT22;7210;51.502;10.722;2023-12-20T12:44:14;6.80;99.90
14252;DHT22;7210;51.502;10.722;2023-12-20T12:46:42;6.90;99.90
14252;DHT22;7210;51.502;10.722;2023-12-20T12:49:09;6.90;99.90
14252;DHT22;7210;51.502;10.722;2023-12-20T12:51:36;6.90;99.90
14252;DHT22;7210;51.502;10.722;2023-12-20T12:54:03;6.90;99.90
14252;DHT22;7210;51.502;10.722;2023-12-20T12:56:30;6.90;99.90
14252;DHT22;7210;51.502;10.722;2023-12-20T12:58:58;6.80;99.90
14252;DHT22;7210;51.502;10.722;2023-12-20T13:01:29;6.80;99.90
14252;DHT22;7210;51.502;10.722;2023-12-20T13:04:01;6.80;99.90
14252;DHT22;7210;51.502;10.722;2023-12-20T13:06:29;6.90;99.90
14252;DHT22;7210;51.502;10.722;2023-12-20T13:08:56;7.00;99.90
14252;DHT22;7210;51.502;10.722;2023-12-20T13:11:23;6.90;99.90
14252;DHT22;7210;51.502;10.722;2023-12-20T13:13:50;6.90;99.90
14252;DHT22;7210;51.502;10.722;2023-12-20T13:16:17;6.80;99.90
14252;DHT22;7210;51.502;10.722;2023-12-20T13:18:44;6.70;99.90
14252;DHT22;7210;51.502;10.722;2023-12-20T13:21:13;6.60;99.90
14252;DHT22;7210;51.502;10.722;2023-12-20T13:23:39;6.50;99.90
14252;DHT22;7210;51.502;10.722;2023-12-20T13:26:07;6.40;99.90
14252;DHT22;7210;51.502;10.722;2023-12-20T13:28:34;6.30;99.90
14252;DHT22;7210;51.502;10.722;2023-12-20T13:31:05;6.30;99.90
14252;DHT22;7210;51.502;10.722;2023-12-20T13:33:32;6.10;99.90
14252;DHT22;7210;51.502;10.722;2023-12-20T13:35:59;6.10;99.90
14252;DHT22;7210;51.502;10.722;2023-12-20T13:38:28;6.10;99.90
14252;DHT22;7210;51.502;10.722;2023-12-20T13:40:55;6.10;99.90
14252;DHT22;7210;51.502;10.722;2023-12-20T13:43:24;6.10;99.90
14252;DHT22;7210;51.502;10.722;2023-12-20T13:45:50;6.00;99.90
14252;DHT22;7210;51.502;10.722;2023-12-20T13:48:18;6.00;99.90
14252;DHT22;7210;51.502;10.722;2023-12-20T13:50:47;5.90;99.90
14252;DHT22;7210;51.502;10.722;2023-12-20T13:53:14;5.80;99.90
14252;DHT22;7210;51.502;10.722;2023-12-20T13:55:43;5.70;99.90
14252;DHT22;7210;51.502;10.722;2023-12-20T13:58:11;5.70;99.90
14252;DHT22;7210;51.502;10.722;2023-12-20T14:00:38;5.60;99.90
14252;DHT22;7210;51.502;10.722;2023-12-20T14:03:05;5.60;99.90
14252;DHT22;7210;51.502;10.722;2023-12-20T14:05:32;5.60;99.90
14252;DHT22;7210;51.502;10.722;2023-12-20T14:07:59;5.50;99.90
14252;DHT22;7210;51.502;10.722;2023-12-20T14:10:29;5.60;99.90
14252;DHT22;7210;51.502;10.722;2023-12-20T14:12:57;5.60;99.90
14252;DHT22;7210;51.502;10.722;2023-12-20T14:15:29;5.60;99.90
14252;DHT22;7210;51.502;10.722;2023-12-20T14:18:03;5.60;99.90
14252;DHT22;7210;51.502;10.722;2023-12-20T14:20:36;5.50;99.90
14252;DHT22;7210;51.502;10.722;2023-12-20T14:23:05;5.50;99.90
14252;DHT22;7210;51.502;10.722;2023-12-20T14:25:32;5.50;99.90
14252;DHT22;7210;51.502;10.722;2023-12-20T14:28:00;5.50;99.90
14252;DHT22;7210;51.502;10.722;2023-12-20T14:30:27;5.60;99.90
14252;DHT22;7210;51.502;10.722;2023-12-20T14:32:54;5.60;99.90
14252;DHT22;7210;51.502;10.722;2023-12-20T14:35:21;5.60;99.90
14252;DHT22;7210;51.502;10.722;2023-12-20T14:37:48;5.60;99.90
14252;DHT22;7210;51.502;10.722;2023-12-20T14:40:16;5.60;99.90
14252;DHT22;7210;51.502;10.722;2023-12-20T14:42:43;5.60;99.90
14252;DHT22;7210;51.502;10.722;2023-12-20T14:45:11;5.70;99.90
14252;DHT22;7210;51.502;10.722;2023-12-20T14:47:39;5.60;99.90
14252;DHT22;7210;51.502;10.722;2023-12-20T14:50:07;5.70;99.90
14252;DHT22;7210;51.502;10.722;2023-12-20T14:52:34;5.70;99.90
14252;DHT22;7210;51.502;10.722;2023-12-20T14:55:00;5.70;99.90
14252;DHT22;7210;51.502;10.722;2023-12-20T14:57:28;5.60;99.90
14252;DHT22;7210;51.502;10.722;2023-12-20T14:59:56;5.70;99.90
14252;DHT22;7210;51.502;10.722;2023-12-20T15:02:24;5.60;99.90
14252;DHT22;7210;51.502;10.722;2023-12-20T15:04:51;5.60;99.90
14252;DHT22;7210;51.502;10.722;2023-12-20T15:07:23;5.60;99.90
14252;DHT22;7210;51.502;10.722;2023-12-20T15:09:50;5.70;99.90
14252;DHT22;7210;51.502;10.722;2023-12-20T15:12:17;5.70;99.90
14252;DHT22;7210;51.502;10.722;2023-12-20T15:14:44;5.70;99.90
14252;DHT22;7210;51.502;10.722;2023-12-20T15:17:11;5.70;99.90
14252;DHT22;7210;51.502;10.722;2023-12-20T15:19:39;5.80;99.90
14252;DHT22;7210;51.502;10.722;2023-12-20T15:22:08;5.70;99.90
14252;DHT22;7210;51.502;10.722;2023-12-20T15:24:36;5.80;99.90
14252;DHT22;7210;51.502;10.722;2023-12-20T15:27:11;5.80;99.90
14252;DHT22;7210;51.502;10.722;2023-12-20T15:29:38;5.80;99.90
14252;DHT22;7210;51.502;10.722;2023-12-20T15:32:06;5.80;99.90
14252;DHT22;7210;51.502;10.722;2023-12-20T15:34:32;5.80;99.90
14252;DHT22;7210;51.502;10.722;2023-12-20T15:37:01;5.80;99.90
14252;DHT22;7210;51.502;10.722;2023-12-20T15:39:28;5.80;99.90
14252;DHT22;7210;51.502;10.722;2023-12-20T15:41:55;5.80;99.90
14252;DHT22;7210;51.502;10.722;2023-12-20T15:44:23;5.80;99.90
14252;DHT22;7210;51.502;10.722;2023-12-20T15:46:51;5.80;99.90
14252;DHT22;7210;51.502;10.722;2023-12-20T15:49:18;5.80;99.90
14252;DHT22;7210;51.502;10.722;2023-12-20T15:51:45;5.70;99.90
14252;DHT22;7210;51.502;10.722;2023-12-20T15:54:13;5.80;99.90